Time;durP1;ratioP1;P1;durP2;ratioP2;P2;SDS_P1;SDS_P2;PMS_P1;PMS_P2;Temp;Humidity;BMP_temperature;BMP_pressure;BME280_temperature;BME280_humidity;BME280_pressure;Samples;Min_cycle;Max_cycle;Signal;HPM_P1;HPM_P2
2022/10/13 00:00:31;;;;;;;15.20;8.83;;;;;;;12.12;88.07;95624.22;5091795;28;20498;-78
2022/10/13 00:02:59;;;;;;;15.50;11.07;;;;;;;12.10;88.18;95615.63;5091423;28;20484;-78
2022/10/13 00:05:29;;;;;;;11.60;8.97;;;;;;;12.04;87.18;95621.38;5091656;28;20444;-76
2022/10/13 00:07:56;;;;;;;15.07;9.97;;;;;;;12.00;88.01;95620.78;5091471;28;20472;-78
2022/10/13 00:10:22;;;;;;;11.80;9.70;;;;;;;11.98;88.67;95627.13;5093811;28;20508;-77
2022/10/13 00:12:50;;;;;;;12.40;8.30;;;;;;;11.95;88.59;95622.94;5095875;28;20443;-77
2022/10/13 00:15:17;;;;;;;12.83;9.93;;;;;;;11.97;88.93;95614.94;5095716;28;20487;-77
2022/10/13 00:17:45;;;;;;;13.30;8.80;;;;;;;11.99;88.86;95616.47;5095686;28;20453;-77
2022/10/13 00:20:12;;;;;;;11.90;9.40;;;;;;;12.03;88.88;95611.81;5095759;28;20451;-78
2022/10/13 00:22:39;;;;;;;12.03;8.77;;;;;;;12.06;88.44;95607.13;5043245;28;20482;-77
2022/10/13 00:25:07;;;;;;;12.00;8.93;;;;;;;12.10;88.38;95613.00;5095279;28;20447;-77
2022/10/13 00:27:34;;;;;;;13.63;9.40;;;;;;;12.02;88.62;95604.88;5043283;28;20447;-78
2022/10/13 00:30:00;;;;;;;13.20;9.83;;;;;;;12.08;88.27;95609.66;5094975;28;20450;-77
2022/10/13 00:32:27;;;;;;;11.07;8.07;;;;;;;12.11;88.56;95601.50;5095455;28;20442;-77
2022/10/13 00:34:56;;;;;;;12.40;9.17;;;;;;;12.13;87.91;95607.47;5095010;28;20464;-77
2022/10/13 00:37:23;;;;;;;10.27;8.57;;;;;;;12.21;87.72;95602.47;5095093;28;20442;-77
2022/10/13 00:39:50;;;;;;;11.13;8.70;;;;;;;12.21;87.30;95606.91;5095051;28;20922;-77
2022/10/13 00:42:17;;;;;;;11.23;8.90;;;;;;;12.25;87.55;95596.00;5094961;28;20476;-77
2022/10/13 00:45:02;;;;;;;9.63;8.30;;;;;;;12.25;87.91;95593.38;5094736;28;20446;-77
2022/10/13 00:47:36;;;;;;;10.83;9.20;;;;;;;12.23;87.55;95595.28;5095122;28;20772;-77
2022/10/13 00:50:07;;;;;;;10.80;8.50;;;;;;;12.28;86.80;95594.91;5094758;28;20470;-77
2022/10/13 00:52:34;;;;;;;11.37;10.17;;;;;;;12.21;87.29;95596.38;5058429;28;20479;-77
2022/10/13 00:55:04;;;;;;;12.57;10.80;;;;;;;12.06;87.19;95596.63;5094664;28;20448;-77
2022/10/13 00:57:31;;;;;;;18.87;12.23;;;;;;;11.91;88.32;95600.47;5075522;28;20439;-77
2022/10/13 00:59:58;;;;;;;23.20;14.70;;;;;;;11.78;89.29;95597.94;5094971;28;20440;-77
2022/10/13 01:02:29;;;;;;;21.80;14.50;;;;;;;11.78;88.70;95595.31;5094728;28;20555;-77
2022/10/13 01:04:56;;;;;;;18.83;12.37;;;;;;;11.76;88.96;95594.56;5094707;28;20510;-77
2022/10/13 01:07:25;;;;;;;19.13;14.03;;;;;;;11.69;89.36;95592.56;5094596;28;20529;-77
2022/10/13 01:09:53;;;;;;;17.13;12.53;;;;;;;11.61;89.93;95597.56;5042092;28;20431;-77
2022/10/13 01:12:35;;;;;;;14.83;10.90;;;;;;;11.56;90.90;95590.03;5094667;28;20492;-77
2022/10/13 01:15:11;;;;;;;11.20;9.83;;;;;;;11.53;90.87;95595.53;5042184;28;20447;-77
2022/10/13 01:17:49;;;;;;;9.70;8.63;;;;;;;11.52;90.59;95591.22;5094297;28;20500;-77
2022/10/13 01:20:39;;;;;;;10.93;9.53;;;;;;;11.46;91.72;95594.31;5093751;28;20508;-77
2022/10/13 01:23:23;;;;;;;12.97;8.57;;;;;;;11.41;91.79;95585.97;5094008;28;21019;-77
2022/10/13 01:26:17;;;;;;;12.13;9.63;;;;;;;11.43;91.99;95578.81;5094006;28;20444;-77
2022/10/13 01:29:08;;;;;;;11.83;9.80;;;;;;;11.36;93.26;95580.22;5094425;28;21559;-77
2022/10/13 01:31:46;;;;;;;11.80;9.57;;;;;;;11.42;92.95;95577.13;5094401;28;20443;-77
2022/10/13 01:34:20;;;;;;;13.40;9.60;;;;;;;11.39;93.74;95593.13;5093990;28;20447;-77
2022/10/13 01:36:56;;;;;;;12.37;10.23;;;;;;;11.33;94.51;95577.84;5093863;28;20519;-78
2022/10/13 01:39:33;;;;;;;11.13;9.87;;;;;;;11.31;95.13;95577.97;5093779;28;20454;-78
2022/10/13 01:42:10;;;;;;;17.40;11.33;;;;;;;11.14;97.20;95573.97;5093536;28;21014;-77
2022/10/13 01:44:41;;;;;;;17.43;11.60;;;;;;;11.00;98.41;95571.59;5093707;28;20501;-77
2022/10/13 01:47:12;;;;;;;12.97;11.27;;;;;;;11.05;98.85;95572.06;5093572;28;20461;-77
2022/10/13 01:49:39;;;;;;;16.40;12.23;;;;;;;11.02;99.85;95563.59;5093948;28;20451;-77
2022/10/13 01:52:09;;;;;;;15.33;12.37;;;;;;;10.99;100.00;95571.69;5093931;28;20482;-77
2022/10/13 01:54:35;;;;;;;15.87;11.53;;;;;;;10.98;100.00;95567.38;5093978;28;20451;-77
2022/10/13 01:57:02;;;;;;;13.47;10.97;;;;;;;10.93;100.00;95566.88;5094015;28;20435;-77
2022/10/13 01:59:32;;;;;;;15.00;11.27;;;;;;;10.95;100.00;95568.44;5093606;28;20455;-77
2022/10/13 02:02:08;;;;;;;16.30;11.60;;;;;;;11.00;100.00;95576.84;5093374;28;20509;-77
2022/10/13 02:04:51;;;;;;;16.90;11.37;;;;;;;10.79;100.00;95583.69;5059415;28;20450;-77
2022/10/13 02:07:21;;;;;;;15.97;11.30;;;;;;;10.84;100.00;95577.13;5093280;28;20457;-77
2022/10/13 02:09:57;;;;;;;14.20;11.27;;;;;;;10.86;100.00;95582.28;5093463;28;20451;-77
2022/10/13 02:12:28;;;;;;;16.87;12.30;;;;;;;10.92;100.00;95576.56;5093364;28;20485;-77
2022/10/13 02:14:57;;;;;;;17.27;11.90;;;;;;;10.93;100.00;95570.34;5093362;28;20533;-77
2022/10/13 02:17:26;;;;;;;17.00;10.70;;;;;;;10.92;100.00;95571.31;5093211;28;20986;-78
2022/10/13 02:19:55;;;;;;;17.10;11.37;;;;;;;10.89;100.00;95579.41;5041262;28;20461;-77
2022/10/13 02:22:26;;;;;;;14.83;10.90;;;;;;;10.97;100.00;95577.03;5057158;28;20552;-77
2022/10/13 02:24:53;;;;;;;15.10;11.50;;;;;;;11.02;100.00;95577.56;5073877;28;20970;-77
2022/10/13 02:27:20;;;;;;;16.33;10.93;;;;;;;11.06;99.47;95571.13;5092724;28;20451;-77
2022/10/13 02:29:53;;;;;;;15.40;12.20;;;;;;;11.01;98.72;95565.38;5092736;28;20809;-77
2022/10/13 02:32:20;;;;;;;18.73;13.10;;;;;;;11.02;99.08;95571.47;5092384;28;20443;-77
2022/10/13 02:34:47;;;;;;;16.20;12.43;;;;;;;11.00;97.78;95574.22;5092918;28;20456;-77
2022/10/13 02:37:15;;;;;;;20.03;14.40;;;;;;;10.94;96.62;95563.31;5092962;28;20497;-77
2022/10/13 02:39:42;;;;;;;20.33;15.23;;;;;;;10.89;96.91;95562.81;5092562;28;20799;-77
2022/10/13 02:42:09;;;;;;;19.83;15.03;;;;;;;10.94;96.00;95556.25;5092955;28;20516;-77
2022/10/13 02:44:36;;;;;;;19.37;14.93;;;;;;;11.00;96.87;95561.06;5092613;28;20447;-77
2022/10/13 02:47:03;;;;;;;25.43;15.87;;;;;;;11.05;97.26;95560.72;5092536;28;20444;-77
2022/10/13 02:49:30;;;;;;;26.08;18.60;;;;;;;10.94;97.47;95563.31;5091469;28;20436;-77
2022/10/13 02:51:57;;;;;;;25.60;17.50;;;;;;;10.95;96.80;95552.69;5092403;28;20762;-77
2022/10/13 02:54:25;;;;;;;23.33;16.43;;;;;;;10.98;96.51;95562.13;5092705;28;20863;-77
2022/10/13 02:56:51;;;;;;;21.63;14.10;;;;;;;10.96;95.35;95556.97;5092513;28;20449;-77
2022/10/13 02:59:18;;;;;;;17.80;13.83;;;;;;;10.87;96.47;95560.31;5092658;28;20506;-77
2022/10/13 03:01:45;;;;;;;20.70;14.70;;;;;;;10.84;95.72;95556.13;5092572;28;20446;-77
2022/10/13 03:04:12;;;;;;;17.70;12.80;;;;;;;10.88;97.15;95548.03;5092370;28;20542;-77
2022/10/13 03:06:39;;;;;;;19.77;15.10;;;;;;;10.82;95.33;95560.66;5092376;28;20821;-77
2022/10/13 03:09:05;;;;;;;24.10;16.17;;;;;;;10.69;95.44;95554.63;5092310;28;20444;-77
2022/10/13 03:11:34;;;;;;;21.67;17.17;;;;;;;10.52;95.56;95550.66;5092562;28;20452;-77
2022/10/13 03:14:00;;;;;;;28.90;18.90;;;;;;;10.49;96.02;95545.66;5092529;28;20454;-77
2022/10/13 03:16:27;;;;;;;27.83;15.90;;;;;;;10.54;95.91;95547.91;5092446;28;20454;-77
2022/10/13 03:18:54;;;;;;;28.33;16.90;;;;;;;10.60;95.98;95551.88;5091956;28;20446;-78
2022/10/13 03:21:21;;;;;;;22.53;15.70;;;;;;;10.66;96.66;95551.41;5092304;28;20454;-77
2022/10/13 03:23:48;;;;;;;19.83;15.23;;;;;;;10.73;96.63;95553.47;5091822;28;20485;-77
2022/10/13 03:26:15;;;;;;;20.67;13.47;;;;;;;10.80;95.92;95559.09;5092195;28;20449;-77
2022/10/13 03:28:43;;;;;;;25.00;15.23;;;;;;;10.81;94.49;95552.91;5056529;28;20533;-77
2022/10/13 03:31:12;;;;;;;20.07;14.20;;;;;;;10.86;95.63;95572.59;5091887;28;20446;-77
2022/10/13 03:33:40;;;;;;;17.83;13.97;;;;;;;10.86;95.29;95559.47;5091795;28;20989;-77
2022/10/13 03:36:07;;;;;;;23.10;15.43;;;;;;;10.98;95.29;95564.75;5092369;28;20459;-77
2022/10/13 03:38:35;;;;;;;22.37;15.40;;;;;;;10.99;95.11;95558.56;5092002;28;20447;-77
2022/10/13 03:41:06;;;;;;;21.67;15.40;;;;;;;11.01;94.65;95554.88;5091910;28;20526;-77
2022/10/13 03:43:33;;;;;;;21.63;14.70;;;;;;;11.06;94.45;95559.78;5040558;28;20489;-77
2022/10/13 03:46:04;;;;;;;22.60;16.03;;;;;;;10.96;94.38;95549.09;5043855;28;20524;-77
2022/10/13 03:48:31;;;;;;;21.80;14.37;;;;;;;10.93;93.97;95554.59;5096534;28;20503;-77
2022/10/13 03:50:58;;;;;;;21.47;15.53;;;;;;;10.91;94.70;95551.25;5095870;28;20449;-76
2022/10/13 03:53:25;;;;;;;20.63;14.50;;;;;;;10.93;94.74;95559.00;5096061;28;20474;-77
2022/10/13 03:55:53;;;;;;;25.13;15.43;;;;;;;10.85;94.51;95557.81;5096017;28;20449;-77
2022/10/13 03:58:22;;;;;;;18.10;13.67;;;;;;;10.81;94.71;95550.28;5095639;28;20446;-77
2022/10/13 04:00:49;;;;;;;20.30;14.97;;;;;;;10.82;95.02;95551.94;5095968;28;20442;-77
2022/10/13 04:03:18;;;;;;;22.10;15.93;;;;;;;10.84;94.51;95550.88;5053718;28;20485;-77
2022/10/13 04:05:46;;;;;;;24.23;16.03;;;;;;;10.85;94.13;95543.84;5095943;28;20952;-77
2022/10/13 04:08:13;;;;;;;21.77;15.33;;;;;;;10.76;94.41;95536.66;5095943;28;20951;-77
2022/10/13 04:10:40;;;;;;;19.77;16.03;;;;;;;10.71;95.34;95539.66;5076635;28;20504;-77
2022/10/13 04:13:07;;;;;;;21.70;15.40;;;;;;;10.68;95.08;95544.25;5095396;28;20453;-77
2022/10/13 04:15:37;;;;;;;25.43;15.67;;;;;;;10.69;94.88;95548.56;5095663;28;20445;-77
2022/10/13 04:18:04;;;;;;;26.03;16.30;;;;;;;10.70;94.66;95552.88;5095551;28;20450;-77
2022/10/13 04:20:36;;;;;;;26.07;17.00;;;;;;;10.69;94.28;95545.94;5095735;28;20441;-77
2022/10/13 04:23:03;;;;;;;37.00;16.27;;;;;;;10.64;94.34;95543.66;5059284;28;20988;-77
2022/10/13 04:25:29;;;;;;;33.63;18.83;;;;;;;10.48;94.87;95538.72;5096202;28;20482;-78
2022/10/13 04:27:56;;;;;;;24.20;16.97;;;;;;;10.50;94.75;95539.44;5096468;28;20461;-78
2022/10/13 04:30:23;;;;;;;25.50;16.90;;;;;;;10.54;94.28;95543.50;5096074;28;20772;-77
2022/10/13 04:32:50;;;;;;;23.93;16.17;;;;;;;10.43;95.51;95535.59;5095976;28;20806;-77
2022/10/13 04:35:17;;;;;;;30.47;18.80;;;;;;;10.28;95.97;95538.50;5095915;28;21051;-77
2022/10/13 04:37:45;;;;;;;31.00;17.33;;;;;;;10.11;96.99;95537.06;5095825;28;20452;-77
2022/10/13 04:40:12;;;;;;;26.03;17.10;;;;;;;9.99;97.30;95537.97;5095606;28;20503;-77
2022/10/13 04:42:39;;;;;;;22.77;17.43;;;;;;;9.91;97.89;95533.28;5059898;28;20446;-77
2022/10/13 04:45:06;;;;;;;37.37;19.10;;;;;;;9.75;98.83;95541.41;5095615;28;20499;-77
2022/10/13 04:47:35;;;;;;;30.83;18.70;;;;;;;9.49;100.00;95537.16;5095772;28;20492;-77
2022/10/13 04:50:02;;;;;;;32.53;19.73;;;;;;;9.32;100.00;95541.81;5095646;28;20454;-77
2022/10/13 04:52:30;;;;;;;36.60;20.03;;;;;;;9.29;100.00;95535.94;5095499;28;20484;-77
2022/10/13 04:54:59;;;;;;;34.97;19.43;;;;;;;9.54;100.00;95542.91;5095078;28;20457;-76
2022/10/13 04:57:26;;;;;;;40.33;20.30;;;;;;;9.61;100.00;95546.78;5095619;28;20448;-77
2022/10/13 04:59:52;;;;;;;30.83;19.13;;;;;;;9.82;100.00;95541.78;5095641;28;20444;-77
2022/10/13 05:02:19;;;;;;;27.30;18.57;;;;;;;9.99;100.00;95549.28;5095462;28;20444;-77
2022/10/13 05:04:46;;;;;;;27.47;18.23;;;;;;;10.10;100.00;95553.75;5095411;28;20484;-77
2022/10/13 05:07:13;;;;;;;34.43;16.57;;;;;;;10.21;100.00;95546.84;5095046;28;20503;-77
2022/10/13 05:09:40;;;;;;;26.93;16.83;;;;;;;10.37;100.00;95550.94;5042859;28;20502;-77
2022/10/13 05:12:08;;;;;;;33.07;19.40;;;;;;;10.49;99.89;95550.91;5095355;28;20456;-77
2022/10/13 05:14:35;;;;;;;34.20;17.83;;;;;;;10.60;100.00;95544.84;5094995;28;20453;-77
2022/10/13 05:17:02;;;;;;;34.00;19.60;;;;;;;10.74;99.46;95559.56;5095145;28;20450;-77
2022/10/13 05:19:29;;;;;;;24.83;17.77;;;;;;;10.86;98.89;95553.38;5095011;28;20458;-78
2022/10/13 05:21:55;;;;;;;26.27;18.30;;;;;;;10.99;97.89;95558.56;5094877;28;20442;-78
2022/10/13 05:24:29;;;;;;;28.60;19.90;;;;;;;11.14;97.99;95565.28;5094944;28;20490;-77
2022/10/13 05:26:56;;;;;;;30.17;21.00;;;;;;;11.28;97.71;95564.22;5094494;28;20528;-77
2022/10/13 05:29:24;;;;;;;27.27;20.47;;;;;;;11.36;98.12;95577.59;5094925;28;20454;-77
2022/10/13 05:31:51;;;;;;;30.17;19.87;;;;;;;11.41;97.50;95564.94;5059515;28;20437;-77
2022/10/13 05:34:18;;;;;;;34.53;20.70;;;;;;;11.51;96.58;95579.03;5075259;28;20446;-77
2022/10/13 05:36:45;;;;;;;32.87;20.07;;;;;;;11.54;97.17;95581.41;5107324;28;20432;-77
2022/10/13 05:39:11;;;;;;;31.33;19.80;;;;;;;11.56;96.21;95584.75;5114874;28;20443;-78
2022/10/13 05:41:39;;;;;;;25.43;18.83;;;;;;;11.53;96.61;95592.88;5062805;28;20446;-78
2022/10/13 05:44:08;;;;;;;37.63;19.80;;;;;;;11.60;95.99;95595.91;5112938;28;20477;-77
2022/10/13 05:46:36;;;;;;;44.73;20.93;;;;;;;11.63;94.59;95600.91;5114859;28;20822;-78
2022/10/13 05:49:04;;;;;;;30.03;20.17;;;;;;;11.70;94.98;95597.69;5096353;28;20497;-78
2022/10/13 05:51:33;;;;;;;38.63;22.60;;;;;;;11.82;94.93;95608.22;5104225;28;20447;-78
2022/10/13 05:54:06;;;;;;;32.30;19.90;;;;;;;11.88;94.47;95607.78;5114275;28;20485;-78
2022/10/13 05:56:38;;;;;;;39.90;18.93;;;;;;;11.96;93.53;95605.38;5100107;28;20448;-79
2022/10/13 05:59:10;;;;;;;30.83;19.03;;;;;;;12.06;94.54;95609.75;5102243;28;20440;-78
2022/10/13 06:01:40;;;;;;;38.07;20.53;;;;;;;12.24;94.24;95604.00;5112307;28;20450;-80
2022/10/13 06:04:10;;;;;;;33.47;19.43;;;;;;;12.48;93.45;95615.22;5062085;28;20483;-78
2022/10/13 06:06:36;;;;;;;35.20;21.17;;;;;;;12.70;93.30;95617.75;5111159;28;20468;-78
2022/10/13 06:09:03;;;;;;;38.83;23.00;;;;;;;12.96;92.09;95614.78;5052340;28;20455;-78
2022/10/13 06:11:30;;;;;;;35.47;21.00;;;;;;;13.07;90.27;95611.28;5113437;28;20450;-78
2022/10/13 06:13:57;;;;;;;41.40;22.37;;;;;;;13.17;89.86;95612.16;5060644;28;20443;-78
2022/10/13 06:16:24;;;;;;;35.17;23.10;;;;;;;13.12;89.40;95609.91;5062056;28;20872;-78
2022/10/13 06:18:52;;;;;;;41.50;23.87;;;;;;;13.09;89.56;95609.34;5095394;28;20451;-78
2022/10/13 06:21:18;;;;;;;31.37;23.07;;;;;;;13.18;89.34;95603.31;5101781;28;20439;-78
2022/10/13 06:23:45;;;;;;;43.80;25.70;;;;;;;13.52;90.13;95604.78;5098482;28;20492;-79
2022/10/13 06:26:12;;;;;;;47.33;23.67;;;;;;;13.59;87.17;95603.31;5106833;28;20451;-78
2022/10/13 06:28:39;;;;;;;38.27;23.40;;;;;;;13.62;86.84;95608.34;5113379;28;20450;-78
2022/10/13 06:31:06;;;;;;;30.80;22.47;;;;;;;13.70;87.56;95612.09;5113111;28;20443;-77
2022/10/13 06:33:33;;;;;;;27.30;20.20;;;;;;;13.94;88.14;95602.09;5106701;28;20451;-78
2022/10/13 06:36:03;;;;;;;20.90;14.30;;;;;;;14.36;87.57;95605.41;5092983;28;20481;-78
2022/10/13 06:38:30;;;;;;;15.77;13.33;;;;;;;14.68;86.08;95607.84;5093001;28;21157;-79
2022/10/13 06:41:00;;;;;;;27.93;13.37;;;;;;;14.96;83.88;95610.63;5092763;28;20974;-78
2022/10/13 06:43:27;;;;;;;21.37;13.40;;;;;;;15.31;82.51;95610.06;5092690;28;20463;-78
2022/10/13 06:45:57;;;;;;;22.17;14.83;;;;;;;15.64;81.69;95608.81;5093021;28;20811;-78
2022/10/13 06:48:24;;;;;;;20.90;15.10;;;;;;;15.54;78.99;95610.59;5092815;28;20831;-78
2022/10/13 06:50:50;;;;;;;21.43;12.00;;;;;;;16.40;93.13;95588.25;5092591;28;20450;-83
2022/10/13 06:53:18;;;;;;;22.43;15.67;;;;;;;17.03;81.08;95604.16;5040008;28;20502;-83
2022/10/13 06:55:45;;;;;;;21.80;15.13;;;;;;;17.67;76.38;95604.84;5092406;28;20534;-79
2022/10/13 06:58:12;;;;;;;19.80;15.47;;;;;;;17.75;71.78;95603.09;5092546;28;20436;-79
2022/10/13 07:00:41;;;;;;;29.17;19.67;;;;;;;17.44;72.26;95607.16;5092898;28;20500;-78
2022/10/13 07:03:08;;;;;;;37.20;20.87;;;;;;;16.84;75.05;95601.69;5093177;28;20451;-78
2022/10/13 07:05:34;;;;;;;34.93;20.27;;;;;;;16.03;77.47;95597.09;5113520;28;20510;-78
2022/10/13 07:08:01;;;;;;;28.17;19.33;;;;;;;15.94;77.72;95595.31;5112821;28;20445;-79
2022/10/13 07:10:29;;;;;;;28.93;20.13;;;;;;;15.89;79.30;95596.72;5113114;28;20450;-78
2022/10/13 07:12:57;;;;;;;24.90;18.20;;;;;;;15.78;80.15;95587.16;5112709;28;20513;-78
2022/10/13 07:15:24;;;;;;;34.67;19.93;;;;;;;15.39;81.68;95587.25;5111845;28;20439;-78
2022/10/13 07:17:53;;;;;;;26.87;20.07;;;;;;;15.31;83.15;95588.91;5100173;28;20489;-78
2022/10/13 07:20:20;;;;;;;38.67;20.57;;;;;;;15.32;83.13;95586.13;5092818;28;20447;-78
2022/10/13 07:22:47;;;;;;;37.70;21.10;;;;;;;14.80;84.17;95590.06;5092686;28;20457;-78
2022/10/13 07:25:15;;;;;;;35.10;20.67;;;;;;;14.81;85.65;95587.28;5092351;28;20483;-79
2022/10/13 07:27:43;;;;;;;31.93;21.27;;;;;;;14.75;85.41;95587.00;5093024;28;20443;-78
2022/10/13 07:30:10;;;;;;;32.30;21.07;;;;;;;14.95;85.48;95587.84;5092828;28;20857;-78
2022/10/13 07:32:38;;;;;;;35.70;19.77;;;;;;;15.10;84.50;95597.03;5092623;28;20928;-78
2022/10/13 07:35:05;;;;;;;22.93;17.80;;;;;;;14.84;84.43;95589.66;5092842;28;20970;-78
2022/10/13 07:37:32;;;;;;;34.00;20.03;;;;;;;14.79;85.51;95594.53;5093004;28;20445;-78
2022/10/13 07:40:00;;;;;;;28.50;19.50;;;;;;;14.93;85.16;95585.34;5092752;28;20443;-78
2022/10/13 07:42:26;;;;;;;28.10;20.40;;;;;;;15.17;84.06;95587.53;5092878;28;20480;-77
2022/10/13 07:44:55;;;;;;;27.53;20.80;;;;;;;15.35;83.54;95585.03;5040795;28;20543;-79
2022/10/13 07:47:21;;;;;;;29.93;20.53;;;;;;;15.51;83.12;95590.53;5092711;28;20446;-78
2022/10/13 07:49:48;;;;;;;27.67;19.30;;;;;;;15.37;82.64;95583.91;5092756;28;20527;-78
2022/10/13 07:52:15;;;;;;;27.03;19.60;;;;;;;15.42;83.39;95581.66;5092522;28;20855;-79
2022/10/13 07:54:42;;;;;;;32.70;19.97;;;;;;;15.65;81.70;95584.00;5092541;28;20448;-78
2022/10/13 07:57:09;;;;;;;34.77;21.53;;;;;;;15.68;81.44;95589.00;5091802;28;20935;-78
2022/10/13 07:59:35;;;;;;;32.30;21.00;;;;;;;15.71;80.80;95581.63;5094061;28;20479;-78
2022/10/13 08:02:04;;;;;;;32.53;20.10;;;;;;;15.68;79.86;95581.06;5091600;28;20941;-78
2022/10/13 08:04:31;;;;;;;27.47;19.30;;;;;;;15.68;80.07;95581.91;5091587;28;20990;-78
2022/10/13 08:06:58;;;;;;;36.80;19.90;;;;;;;15.69;79.83;95575.63;5091619;28;20454;-78
2022/10/13 08:09:25;;;;;;;26.50;19.27;;;;;;;15.77;80.54;95574.91;5091629;28;20539;-79
2022/10/13 08:11:53;;;;;;;27.53;19.57;;;;;;;15.74;80.49;95570.75;5091838;28;20930;-78
2022/10/13 08:14:20;;;;;;;31.90;20.43;;;;;;;15.70;79.67;95579.13;5091491;28;20444;-78
2022/10/13 08:16:47;;;;;;;35.10;21.77;;;;;;;15.76;80.19;95581.19;5055634;28;20451;-78
2022/10/13 08:19:16;;;;;;;30.47;19.93;;;;;;;15.79;79.53;95572.94;5091770;28;20443;-78
2022/10/13 08:21:45;;;;;;;31.33;19.33;;;;;;;15.85;80.09;95569.72;5089021;28;20440;-78
2022/10/13 08:24:14;;;;;;;33.73;22.47;;;;;;;15.92;80.26;95576.13;5111535;28;20484;-78
2022/10/13 08:26:42;;;;;;;31.30;20.23;;;;;;;16.01;79.04;95572.56;5111947;28;20458;-78
2022/10/13 08:29:09;;;;;;;30.37;19.73;;;;;;;16.16;78.95;95580.03;5112027;28;20443;-79
2022/10/13 08:31:35;;;;;;;43.63;20.60;;;;;;;16.23;78.39;95571.38;5114624;28;20443;-78
2022/10/13 08:34:02;;;;;;;28.70;18.60;;;;;;;16.22;78.00;95559.09;5115729;28;20443;-78
2022/10/13 08:36:30;;;;;;;28.33;18.90;;;;;;;16.27;77.04;95563.94;5115947;28;20458;-79
2022/10/13 08:38:57;;;;;;;29.93;19.13;;;;;;;16.28;76.75;95557.66;5115604;28;20439;-78
2022/10/13 08:41:27;;;;;;;24.97;18.87;;;;;;;16.29;76.54;95560.16;5115533;28;20762;-78
2022/10/13 08:43:57;;;;;;;31.47;18.33;;;;;;;16.29;76.15;95561.97;5079419;28;20438;-79
2022/10/13 08:46:28;;;;;;;27.87;17.13;;;;;;;16.29;76.70;95560.16;5062976;28;20478;-78
2022/10/13 08:48:56;;;;;;;31.00;18.30;;;;;;;16.34;77.12;95552.59;5115545;28;20454;-78
2022/10/13 08:51:23;;;;;;;34.77;20.17;;;;;;;16.35;77.01;95556.09;5115588;28;20438;-79
2022/10/13 08:53:52;;;;;;;31.00;19.90;;;;;;;16.27;76.74;95550.72;5115543;28;20446;-78
2022/10/13 08:56:21;;;;;;;29.90;20.70;;;;;;;16.27;76.92;95561.31;5115103;28;20469;-79
2022/10/13 08:58:51;;;;;;;35.10;20.17;;;;;;;16.31;78.18;95550.25;5115458;28;20511;-79
2022/10/13 09:01:20;;;;;;;29.57;17.93;;;;;;;16.49;76.62;95547.66;5115713;28;20499;-78
2022/10/13 09:03:53;;;;;;;35.63;18.67;;;;;;;16.71;75.56;95543.72;5058443;28;20840;-79
2022/10/13 09:06:27;;;;;;;32.50;19.10;;;;;;;16.71;75.83;95543.72;5094669;28;20483;-78
2022/10/13 09:08:58;;;;;;;22.50;15.53;;;;;;;16.80;75.24;95536.72;5094635;28;20447;-78
2022/10/13 09:11:29;;;;;;;27.43;15.60;;;;;;;17.02;75.90;95530.91;5095115;28;20560;-78
2022/10/13 09:13:58;;;;;;;22.07;15.70;;;;;;;17.24;74.04;95530.41;5095013;28;20451;-79
2022/10/13 09:16:30;;;;;;;44.73;17.43;;;;;;;17.43;73.57;95531.22;5059535;28;20432;-79
2022/10/13 09:19:13;;;;;;;23.80;16.23;;;;;;;17.50;73.89;95530.41;5094791;28;20456;-78
2022/10/13 09:21:40;;;;;;;31.70;17.00;;;;;;;17.55;72.93;95527.28;5095448;28;20447;-77
2022/10/13 09:24:15;;;;;;;23.73;15.63;;;;;;;17.60;72.48;95530.31;5095011;28;20452;-77
2022/10/13 09:26:43;;;;;;;26.43;15.53;;;;;;;17.71;72.61;95524.78;5095015;28;20514;-77
2022/10/13 09:29:11;;;;;;;26.93;16.47;;;;;;;17.82;71.99;95521.84;5094873;28;20509;-77
2022/10/13 09:31:38;;;;;;;21.97;16.03;;;;;;;17.88;72.47;95523.00;5095102;28;20831;-76
2022/10/13 09:34:14;;;;;;;23.00;15.80;;;;;;;17.85;71.29;95510.06;5094478;28;20452;-79
2022/10/13 09:36:55;;;;;;;29.37;15.63;;;;;;;18.05;71.17;95502.69;5094983;28;20443;-77
2022/10/13 09:39:23;;;;;;;23.73;16.50;;;;;;;18.05;71.28;95510.66;5094968;28;20440;-80
2022/10/13 09:41:50;;;;;;;23.73;16.90;;;;;;;18.22;70.73;95504.41;5094563;28;20451;-80
2022/10/13 09:44:26;;;;;;;27.00;16.70;;;;;;;18.27;70.64;95496.78;5094263;28;20447;-80
2022/10/13 09:46:56;;;;;;;22.70;15.83;;;;;;;18.27;70.70;95494.13;5059338;28;20927;-80
2022/10/13 09:49:37;;;;;;;23.57;16.27;;;;;;;18.25;70.52;95490.78;5094992;28;20451;-80
2022/10/13 09:52:06;;;;;;;19.97;13.93;;;;;;;18.27;70.65;95489.63;5094683;28;21192;-80
2022/10/13 09:54:45;;;;;;;23.03;13.77;;;;;;;18.36;71.02;95490.47;5094319;28;20455;-80
2022/10/13 09:57:20;;;;;;;22.30;13.87;;;;;;;18.44;70.46;95487.81;5094715;28;20451;-79
2022/10/13 09:59:50;;;;;;;20.93;14.57;;;;;;;18.54;70.43;95488.53;5094638;28;20446;-77
2022/10/13 10:02:28;;;;;;;17.73;13.13;;;;;;;18.69;70.18;95485.25;5075751;28;20447;-79
2022/10/13 10:04:59;;;;;;;21.53;13.33;;;;;;;18.72;69.62;95468.94;5094713;28;20483;-78
2022/10/13 10:07:30;;;;;;;27.63;14.50;;;;;;;18.74;70.15;95474.94;5041835;28;20785;-77
2022/10/13 10:10:03;;;;;;;23.23;14.73;;;;;;;18.60;68.87;95476.41;5094104;28;20768;-78
2022/10/13 10:12:35;;;;;;;19.90;13.40;;;;;;;18.51;68.82;95469.44;5094272;28;20451;-78
2022/10/13 10:15:02;;;;;;;17.90;14.00;;;;;;;18.32;69.42;95467.88;5093959;28;20801;-77
2022/10/13 10:17:37;;;;;;;19.83;13.37;;;;;;;18.27;69.17;95467.56;5093898;28;20440;-77
2022/10/13 10:20:34;;;;;;;15.67;13.13;;;;;;;18.20;69.73;95447.91;5041938;28;20529;-78
2022/10/13 10:23:07;;;;;;;19.07;13.97;;;;;;;18.26;70.13;95449.94;5093795;28;20452;-80
2022/10/13 10:25:45;;;;;;;18.13;13.40;;;;;;;18.31;70.48;95450.28;5058415;28;20483;-80
2022/10/13 10:28:27;;;;;;;20.60;13.80;;;;;;;18.34;70.56;95443.81;5093888;28;20455;-79
2022/10/13 10:31:01;;;;;;;15.83;12.37;;;;;;;18.42;70.79;95441.97;5093009;28;20439;-80
2022/10/13 10:33:35;;;;;;;23.70;13.40;;;;;;;18.36;70.01;95442.66;5092739;28;20830;-79
2022/10/13 10:36:15;;;;;;;26.03;13.07;;;;;;;18.37;69.98;95444.31;5092692;28;20831;-79
2022/10/13 10:38:46;;;;;;;20.17;13.43;;;;;;;18.36;70.00;95437.34;5092736;28;20504;-79
2022/10/13 10:41:26;;;;;;;22.80;13.00;;;;;;;18.45;70.06;95424.88;5092741;28;20440;-79
2022/10/13 10:43:57;;;;;;;24.43;12.97;;;;;;;18.58;69.91;95414.59;5092363;28;20493;-80
2022/10/13 10:46:27;;;;;;;21.60;11.67;;;;;;;18.70;70.17;95417.78;5092566;28;20483;-79
2022/10/13 10:48:58;;;;;;;21.43;12.73;;;;;;;18.75;68.87;95416.28;5092684;28;20518;-80
2022/10/13 10:51:31;;;;;;;16.50;12.40;;;;;;;18.71;68.25;95411.47;5092865;28;20505;-79
2022/10/13 10:54:08;;;;;;;18.80;11.90;;;;;;;18.72;68.26;95402.47;5091837;28;20814;-79
2022/10/13 10:56:42;;;;;;;23.17;13.63;;;;;;;18.78;68.39;95404.47;5092505;28;20475;-79
2022/10/13 10:59:22;;;;;;;25.63;10.60;;;;;;;18.87;68.99;95400.81;5101507;28;20440;-79
2022/10/13 11:01:59;;;;;;;19.23;10.23;;;;;;;18.91;65.67;95396.00;5112829;28;20442;-79
2022/10/13 11:04:44;;;;;;;18.57;9.50;;;;;;;19.05;65.37;95396.13;5112505;28;20434;-79
2022/10/13 11:07:14;;;;;;;16.40;10.67;;;;;;;19.18;65.73;95396.44;5112549;28;20490;-80
2022/10/13 11:10:17;;;;;;;14.50;10.33;;;;;;;19.29;64.56;95389.06;5112842;28;20443;-79
2022/10/13 11:13:15;;;;;;;9.00;8.10;;;;;;;19.41;62.99;95383.22;5009645;28;20595;-79
2022/10/13 11:15:44;;;;;;;10.27;8.40;;;;;;;19.46;62.56;95372.06;5009618;28;20529;-79
2022/10/13 11:18:47;;;;;;;14.10;10.00;;;;;;;19.47;63.75;95371.06;5009514;28;20455;-80
2022/10/13 11:21:14;;;;;;;18.10;11.40;;;;;;;19.44;63.79;95364.25;5009759;28;20958;-80
2022/10/13 11:23:45;;;;;;;19.73;10.93;;;;;;;19.52;63.57;95354.56;5009510;28;20466;-80
2022/10/13 11:26:31;;;;;;;13.30;10.73;;;;;;;19.52;62.31;95359.88;5009601;28;20898;-79
2022/10/13 11:28:59;;;;;;;15.10;10.63;;;;;;;19.50;63.55;95357.41;5009573;28;20466;-80